sensor_id;sensor_type;location;lat;lon;timestamp;pressure;altitude;pressure_sealevel;temperature;humidity
61870;BME280;47810;42.264;23.826;2022-08-19T00:01:59;93631.97;;;23.70;45.95
61870;BME280;47810;42.264;23.826;2022-08-19T00:04:28;93606.16;;;23.53;46.40
61870;BME280;47810;42.264;23.826;2022-08-19T00:06:55;93620.31;;;23.55;46.78
61870;BME280;47810;42.264;23.826;2022-08-19T00:09:23;93613.78;;;23.49;45.82
61870;BME280;47810;42.264;23.826;2022-08-19T00:11:51;93614.06;;;23.39;47.12
61870;BME280;47810;42.264;23.826;2022-08-19T00:14:17;93621.41;;;23.31;46.88
61870;BME280;47810;42.264;23.826;2022-08-19T00:16:48;93623.91;;;23.32;47.12
61870;BME280;47810;42.264;23.826;2022-08-19T00:19:16;93618.50;;;23.32;48.57
61870;BME280;47810;42.264;23.826;2022-08-19T00:21:42;93619.91;;;23.28;46.74
61870;BME280;47810;42.264;23.826;2022-08-19T00:24:12;93625.69;;;23.02;49.09
61870;BME280;47810;42.264;23.826;2022-08-19T00:26:43;93608.03;;;22.99;47.80
61870;BME280;47810;42.264;23.826;2022-08-19T00:29:15;93604.31;;;23.00;47.20
61870;BME280;47810;42.264;23.826;2022-08-19T00:31:44;93615.41;;;23.06;48.95
61870;BME280;47810;42.264;23.826;2022-08-19T00:34:13;93606.41;;;22.90;48.79
61870;BME280;47810;42.264;23.826;2022-08-19T00:36:42;93610.50;;;22.86;49.44
61870;BME280;47810;42.264;23.826;2022-08-19T00:39:16;93602.28;;;22.79;48.18
61870;BME280;47810;42.264;23.826;2022-08-19T00:41:43;93600.97;;;22.75;49.52
61870;BME280;47810;42.264;23.826;2022-08-19T00:44:24;93603.13;;;22.80;49.77
61870;BME280;47810;42.264;23.826;2022-08-19T00:46:51;93607.50;;;22.81;49.08
61870;BME280;47810;42.264;23.826;2022-08-19T00:49:41;93605.16;;;22.78;49.12
61870;BME280;47810;42.264;23.826;2022-08-19T00:52:15;93607.94;;;22.70;49.85
61870;BME280;47810;42.264;23.826;2022-08-19T00:54:44;93610.78;;;22.68;48.64
61870;BME280;47810;42.264;23.826;2022-08-19T00:57:17;93616.34;;;22.67;49.25
61870;BME280;47810;42.264;23.826;2022-08-19T00:59:51;93619.94;;;22.59;49.79
61870;BME280;47810;42.264;23.826;2022-08-19T01:02:21;93616.47;;;22.50;50.01
61870;BME280;47810;42.264;23.826;2022-08-19T01:04:47;93621.91;;;22.42;50.96
61870;BME280;47810;42.264;23.826;2022-08-19T01:07:16;93625.25;;;22.44;51.02
61870;BME280;47810;42.264;23.826;2022-08-19T01:09:46;93632.31;;;22.45;50.60
61870;BME280;47810;42.264;23.826;2022-08-19T01:12:12;93626.31;;;22.35;50.60
61870;BME280;47810;42.264;23.826;2022-08-19T01:14:40;93618.75;;;22.30;50.02
61870;BME280;47810;42.264;23.826;2022-08-19T01:17:09;93620.31;;;22.25;50.90
61870;BME280;47810;42.264;23.826;2022-08-19T01:19:41;93624.00;;;22.24;50.84
61870;BME280;47810;42.264;23.826;2022-08-19T01:24:36;93613.84;;;22.34;49.20
61870;BME280;47810;42.264;23.826;2022-08-19T01:27:06;93614.84;;;22.41;48.14
61870;BME280;47810;42.264;23.826;2022-08-19T01:29:32;93612.56;;;22.53;47.49
61870;BME280;47810;42.264;23.826;2022-08-19T01:32:01;93610.00;;;22.60;47.57
61870;BME280;47810;42.264;23.826;2022-08-19T01:34:30;93618.69;;;22.70;47.73
61870;BME280;47810;42.264;23.826;2022-08-19T01:37:00;93625.44;;;22.66;48.87
61870;BME280;47810;42.264;23.826;2022-08-19T01:39:39;93631.88;;;22.56;48.82
61870;BME280;47810;42.264;23.826;2022-08-19T01:42:07;93625.25;;;22.44;49.61
61870;BME280;47810;42.264;23.826;2022-08-19T01:44:41;93633.34;;;22.36;49.12
61870;BME280;47810;42.264;23.826;2022-08-19T01:47:08;93628.88;;;22.28;49.43
61870;BME280;47810;42.264;23.826;2022-08-19T01:49:43;93629.38;;;22.24;50.24
61870;BME280;47810;42.264;23.826;2022-08-19T01:52:11;93641.50;;;22.12;51.04
61870;BME280;47810;42.264;23.826;2022-08-19T01:54:39;93635.78;;;22.15;51.19
61870;BME280;47810;42.264;23.826;2022-08-19T01:57:09;93625.94;;;21.99;52.35
61870;BME280;47810;42.264;23.826;2022-08-19T01:59:37;93631.19;;;21.92;51.88
61870;BME280;47810;42.264;23.826;2022-08-19T02:02:05;93629.56;;;21.83;51.26
61870;BME280;47810;42.264;23.826;2022-08-19T02:04:33;93637.78;;;21.90;51.96
61870;BME280;47810;42.264;23.826;2022-08-19T02:07:00;93636.22;;;21.95;52.54
61870;BME280;47810;42.264;23.826;2022-08-19T02:09:27;93636.22;;;21.95;51.22
61870;BME280;47810;42.264;23.826;2022-08-19T02:11:53;93629.25;;;21.78;52.41
61870;BME280;47810;42.264;23.826;2022-08-19T02:14:19;93626.16;;;21.89;51.79
61870;BME280;47810;42.264;23.826;2022-08-19T02:16:47;93632.13;;;21.68;51.77
61870;BME280;47810;42.264;23.826;2022-08-19T02:19:14;93633.66;;;21.62;52.58
61870;BME280;47810;42.264;23.826;2022-08-19T02:21:41;93629.16;;;21.55;53.28
61870;BME280;47810;42.264;23.826;2022-08-19T02:24:11;93629.50;;;21.44;53.47
61870;BME280;47810;42.264;23.826;2022-08-19T02:26:38;93620.59;;;21.43;52.84
61870;BME280;47810;42.264;23.826;2022-08-19T02:29:06;93623.78;;;21.30;54.35
61870;BME280;47810;42.264;23.826;2022-08-19T02:31:33;93621.97;;;21.23;55.47
61870;BME280;47810;42.264;23.826;2022-08-19T02:33:59;93628.84;;;21.17;54.99
61870;BME280;47810;42.264;23.826;2022-08-19T02:36:27;93635.22;;;21.32;54.36
61870;BME280;47810;42.264;23.826;2022-08-19T02:38:54;93641.44;;;21.16;54.55
61870;BME280;47810;42.264;23.826;2022-08-19T02:41:23;93636.75;;;21.35;54.86
61870;BME280;47810;42.264;23.826;2022-08-19T02:43:57;93641.78;;;21.13;54.85
61870;BME280;47810;42.264;23.826;2022-08-19T02:46:25;93651.69;;;21.13;55.76
61870;BME280;47810;42.264;23.826;2022-08-19T02:48:56;93641.75;;;21.30;54.59
61870;BME280;47810;42.264;23.826;2022-08-19T02:51:30;93646.63;;;21.26;54.23
61870;BME280;47810;42.264;23.826;2022-08-19T02:53:58;93645.47;;;21.29;54.31
61870;BME280;47810;42.264;23.826;2022-08-19T02:56:26;93646.81;;;21.00;55.82
61870;BME280;47810;42.264;23.826;2022-08-19T02:58:54;93644.28;;;20.99;56.21
61870;BME280;47810;42.264;23.826;2022-08-19T03:01:25;93647.13;;;21.05;55.95
61870;BME280;47810;42.264;23.826;2022-08-19T03:03:51;93646.81;;;21.00;55.74
61870;BME280;47810;42.264;23.826;2022-08-19T03:06:18;93652.69;;;21.04;55.94
61870;BME280;47810;42.264;23.826;2022-08-19T03:08:45;93654.19;;;20.98;56.15
61870;BME280;47810;42.264;23.826;2022-08-19T03:11:19;93643.63;;;21.05;56.80
61870;BME280;47810;42.264;23.826;2022-08-19T03:13:45;93648.16;;;21.04;55.55
61870;BME280;47810;42.264;23.826;2022-08-19T03:16:12;93653.72;;;21.03;55.68
61870;BME280;47810;42.264;23.826;2022-08-19T03:18:39;93644.13;;;20.92;55.25
61870;BME280;47810;42.264;23.826;2022-08-19T03:21:05;93647.16;;;20.81;56.25
61870;BME280;47810;42.264;23.826;2022-08-19T03:23:32;93643.81;;;20.87;56.75
61870;BME280;47810;42.264;23.826;2022-08-19T03:26:04;93651.50;;;20.65;56.18
61870;BME280;47810;42.264;23.826;2022-08-19T03:28:30;93649.81;;;20.56;57.43
61870;BME280;47810;42.264;23.826;2022-08-19T03:31:05;93663.59;;;20.61;57.72
61870;BME280;47810;42.264;23.826;2022-08-19T03:33:33;93658.06;;;20.87;55.20
61870;BME280;47810;42.264;23.826;2022-08-19T03:36:12;93644.47;;;20.73;56.03
61870;BME280;47810;42.264;23.826;2022-08-19T03:38:44;93654.19;;;20.74;56.87
61870;BME280;47810;42.264;23.826;2022-08-19T03:41:14;93652.53;;;20.81;55.70
61870;BME280;47810;42.264;23.826;2022-08-19T03:43:42;93656.34;;;20.70;56.56
61870;BME280;47810;42.264;23.826;2022-08-19T03:46:12;93658.91;;;20.72;56.02
61870;BME280;47810;42.264;23.826;2022-08-19T03:48:40;93668.09;;;20.69;55.05
61870;BME280;47810;42.264;23.826;2022-08-19T03:51:24;93660.22;;;20.59;56.52
61870;BME280;47810;42.264;23.826;2022-08-19T03:53:54;93671.63;;;20.61;56.33
61870;BME280;47810;42.264;23.826;2022-08-19T03:56:22;93663.25;;;20.64;57.37
61870;BME280;47810;42.264;23.826;2022-08-19T03:58:50;93672.09;;;20.57;57.68
61870;BME280;47810;42.264;23.826;2022-08-19T04:01:18;93668.28;;;20.67;58.41
61870;BME280;47810;42.264;23.826;2022-08-19T04:03:46;93667.44;;;20.59;58.18
61870;BME280;47810;42.264;23.826;2022-08-19T04:06:25;93665.25;;;20.70;58.66
61870;BME280;47810;42.264;23.826;2022-08-19T04:08:52;93672.28;;;20.63;57.44
61870;BME280;47810;42.264;23.826;2022-08-19T04:11:25;93672.97;;;20.65;58.04
61870;BME280;47810;42.264;23.826;2022-08-19T04:13:53;93667.59;;;20.74;57.40
61870;BME280;47810;42.264;23.826;2022-08-19T04:16:25;93674.47;;;20.76;57.97
61870;BME280;47810;42.264;23.826;2022-08-19T04:18:55;93674.34;;;20.78;57.51
61870;BME280;47810;42.264;23.826;2022-08-19T04:21:27;93684.88;;;20.55;58.31
61870;BME280;47810;42.264;23.826;2022-08-19T04:23:57;93679.34;;;20.64;58.33
61870;BME280;47810;42.264;23.826;2022-08-19T04:26:34;93672.94;;;20.57;56.70
61870;BME280;47810;42.264;23.826;2022-08-19T04:29:08;93684.72;;;20.81;57.03
61870;BME280;47810;42.264;23.826;2022-08-19T04:31:37;93678.66;;;20.70;57.43
61870;BME280;47810;42.264;23.826;2022-08-19T04:34:17;93681.38;;;20.79;59.88
61870;BME280;47810;42.264;23.826;2022-08-19T04:36:46;93675.66;;;20.74;58.33
61870;BME280;47810;42.264;23.826;2022-08-19T04:39:16;93679.69;;;20.94;58.81
61870;BME280;47810;42.264;23.826;2022-08-19T04:41:45;93677.00;;;21.02;57.63
61870;BME280;47810;42.264;23.826;2022-08-19T04:44:34;93673.66;;;21.16;55.97
61870;BME280;47810;42.264;23.826;2022-08-19T04:47:00;93676.03;;;21.03;57.05
61870;BME280;47810;42.264;23.826;2022-08-19T04:49:28;93676.50;;;21.15;59.08
61870;BME280;47810;42.264;23.826;2022-08-19T04:52:02;93678.84;;;21.18;58.38
61870;BME280;47810;42.264;23.826;2022-08-19T04:54:36;93677.34;;;21.32;59.02
61870;BME280;47810;42.264;23.826;2022-08-19T04:57:18;93676.00;;;21.28;58.06
61870;BME280;47810;42.264;23.826;2022-08-19T04:59:56;93675.00;;;21.37;58.38
61870;BME280;47810;42.264;23.826;2022-08-19T05:05:54;93675.66;;;21.47;58.95
61870;BME280;47810;42.264;23.826;2022-08-19T05:08:26;93672.28;;;21.61;56.76
61870;BME280;47810;42.264;23.826;2022-08-19T05:10:55;93676.97;;;21.68;56.16
61870;BME280;47810;42.264;23.826;2022-08-19T05:13:28;93668.88;;;21.76;57.03
61870;BME280;47810;42.264;23.826;2022-08-19T05:16:01;93677.63;;;21.78;56.65
61870;BME280;47810;42.264;23.826;2022-08-19T05:18:27;93680.97;;;21.80;57.42
61870;BME280;47810;42.264;23.826;2022-08-19T05:21:15;93673.13;;;22.09;57.32
61870;BME280;47810;42.264;23.826;2022-08-19T05:24:18;93681.88;;;22.20;56.32
61870;BME280;47810;42.264;23.826;2022-08-19T05:26:49;93677.44;;;22.27;56.20
61870;BME280;47810;42.264;23.826;2022-08-19T05:29:18;93687.22;;;22.28;55.00
61870;BME280;47810;42.264;23.826;2022-08-19T05:31:48;93668.53;;;22.35;55.41
61870;BME280;47810;42.264;23.826;2022-08-19T05:34:26;93671.72;;;22.30;54.04
61870;BME280;47810;42.264;23.826;2022-08-19T05:36:55;93682.75;;;22.43;54.21
61870;BME280;47810;42.264;23.826;2022-08-19T05:39:26;93687.06;;;22.52;52.89
61870;BME280;47810;42.264;23.826;2022-08-19T05:42:18;93683.00;;;22.56;49.92
61870;BME280;47810;42.264;23.826;2022-08-19T05:44:46;93689.88;;;22.90;52.18
61870;BME280;47810;42.264;23.826;2022-08-19T05:47:41;93687.84;;;22.92;53.33
61870;BME280;47810;42.264;23.826;2022-08-19T05:50:10;93688.84;;;22.99;53.56
61870;BME280;47810;42.264;23.826;2022-08-19T05:55:48;93694.56;;;23.19;52.97
61870;BME280;47810;42.264;23.826;2022-08-19T06:01:20;93691.00;;;23.42;52.28
61870;BME280;47810;42.264;23.826;2022-08-19T06:03:56;93691.84;;;23.42;53.13
61870;BME280;47810;42.264;23.826;2022-08-19T06:06:28;93696.19;;;23.43;53.12
61870;BME280;47810;42.264;23.826;2022-08-19T06:12:19;93694.84;;;23.85;50.30
61870;BME280;47810;42.264;23.826;2022-08-19T06:15:00;93699.00;;;23.88;51.17
61870;BME280;47810;42.264;23.826;2022-08-19T06:17:29;93695.75;;;23.92;50.85
61870;BME280;47810;42.264;23.826;2022-08-19T06:19:59;93697.63;;;24.07;49.45
61870;BME280;47810;42.264;23.826;2022-08-19T06:22:45;93700.03;;;24.31;49.67
61870;BME280;47810;42.264;23.826;2022-08-19T06:25:14;93703.78;;;24.30;47.19
61870;BME280;47810;42.264;23.826;2022-08-19T06:27:54;93697.75;;;24.43;47.86
61870;BME280;47810;42.264;23.826;2022-08-19T06:30:28;93686.66;;;24.53;48.43
61870;BME280;47810;42.264;23.826;2022-08-19T06:33:10;93689.00;;;24.77;51.22
61870;BME280;47810;42.264;23.826;2022-08-19T06:35:39;93692.97;;;24.81;49.69
61870;BME280;47810;42.264;23.826;2022-08-19T06:38:11;93702.00;;;24.89;49.65
61870;BME280;47810;42.264;23.826;2022-08-19T06:40:38;93693.53;;;25.13;49.90
61870;BME280;47810;42.264;23.826;2022-08-19T06:43:04;93700.81;;;25.13;48.11
61870;BME280;47810;42.264;23.826;2022-08-19T06:45:30;93697.84;;;25.29;49.65
61870;BME280;47810;42.264;23.826;2022-08-19T06:47:56;93697.09;;;25.35;48.84
61870;BME280;47810;42.264;23.826;2022-08-19T06:50:24;93697.25;;;25.55;50.58
61870;BME280;47810;42.264;23.826;2022-08-19T06:52:52;93695.69;;;25.67;49.40
61870;BME280;47810;42.264;23.826;2022-08-19T06:55:19;93697.03;;;25.78;48.07
61870;BME280;47810;42.264;23.826;2022-08-19T06:57:45;93695.09;;;25.93;48.15
61870;BME280;47810;42.264;23.826;2022-08-19T07:00:11;93694.75;;;26.10;48.25
61870;BME280;47810;42.264;23.826;2022-08-19T07:02:49;93690.47;;;26.22;48.77
61870;BME280;47810;42.264;23.826;2022-08-19T07:05:19;93688.44;;;26.31;44.49
61870;BME280;47810;42.264;23.826;2022-08-19T07:07:49;93698.69;;;26.42;43.90
61870;BME280;47810;42.264;23.826;2022-08-19T07:10:15;93684.81;;;26.52;44.89
61870;BME280;47810;42.264;23.826;2022-08-19T07:12:45;93692.25;;;26.78;44.77
61870;BME280;47810;42.264;23.826;2022-08-19T07:15:14;93691.25;;;27.05;46.52
61870;BME280;47810;42.264;23.826;2022-08-19T07:17:41;93683.59;;;27.15;43.12
61870;BME280;47810;42.264;23.826;2022-08-19T07:20:10;93693.22;;;27.38;43.78
61870;BME280;47810;42.264;23.826;2022-08-19T07:22:45;93689.69;;;27.57;42.27
61870;BME280;47810;42.264;23.826;2022-08-19T07:25:11;93687.19;;;27.69;41.15
61870;BME280;47810;42.264;23.826;2022-08-19T07:27:40;93685.72;;;27.73;43.10
61870;BME280;47810;42.264;23.826;2022-08-19T07:30:08;93687.44;;;27.94;41.39
61870;BME280;47810;42.264;23.826;2022-08-19T07:32:40;93690.69;;;28.36;42.12
61870;BME280;47810;42.264;23.826;2022-08-19T07:35:14;93688.16;;;28.54;41.71
61870;BME280;47810;42.264;23.826;2022-08-19T07:37:45;93681.28;;;28.52;40.97
61870;BME280;47810;42.264;23.826;2022-08-19T07:40:13;93690.34;;;28.84;41.47
61870;BME280;47810;42.264;23.826;2022-08-19T07:42:39;93690.91;;;28.99;40.48
61870;BME280;47810;42.264;23.826;2022-08-19T07:45:05;93686.50;;;29.12;39.06
61870;BME280;47810;42.264;23.826;2022-08-19T07:47:31;93686.97;;;29.34;41.02
61870;BME280;47810;42.264;23.826;2022-08-19T07:53:42;93695.34;;;29.96;42.14
61870;BME280;47810;42.264;23.826;2022-08-19T07:56:24;93687.19;;;30.14;37.58
61870;BME280;47810;42.264;23.826;2022-08-19T07:58:52;93683.31;;;30.28;38.11
61870;BME280;47810;42.264;23.826;2022-08-19T08:01:23;93683.16;;;30.42;35.38
61870;BME280;47810;42.264;23.826;2022-08-19T08:03:53;93686.06;;;30.47;33.96
61870;BME280;47810;42.264;23.826;2022-08-19T08:06:38;93682.88;;;30.31;34.58
61870;BME280;47810;42.264;23.826;2022-08-19T08:09:37;93678.41;;;30.55;34.48
61870;BME280;47810;42.264;23.826;2022-08-19T08:12:27;93683.25;;;30.90;33.94
61870;BME280;47810;42.264;23.826;2022-08-19T08:15:13;93679.78;;;31.31;33.60
61870;BME280;47810;42.264;23.826;2022-08-19T08:17:45;93675.47;;;31.54;32.02
61870;BME280;47810;42.264;23.826;2022-08-19T08:20:12;93682.50;;;31.62;35.17
61870;BME280;47810;42.264;23.826;2022-08-19T08:22:43;93673.41;;;31.79;31.36
61870;BME280;47810;42.264;23.826;2022-08-19T08:25:27;93676.66;;;32.00;32.24
61870;BME280;47810;42.264;23.826;2022-08-19T08:27:55;93670.84;;;32.08;31.03
61870;BME280;47810;42.264;23.826;2022-08-19T08:30:25;93677.59;;;32.06;30.89
61870;BME280;47810;42.264;23.826;2022-08-19T08:32:53;93672.56;;;31.79;30.41
61870;BME280;47810;42.264;23.826;2022-08-19T08:35:21;93674.41;;;32.32;31.03
61870;BME280;47810;42.264;23.826;2022-08-19T08:37:54;93675.22;;;32.68;32.78
61870;BME280;47810;42.264;23.826;2022-08-19T08:45:30;93664.31;;;33.08;30.01
61870;BME280;47810;42.264;23.826;2022-08-19T08:48:02;93659.94;;;33.07;28.91
61870;BME280;47810;42.264;23.826;2022-08-19T08:50:37;93661.56;;;33.20;30.15
61870;BME280;47810;42.264;23.826;2022-08-19T08:53:06;93663.22;;;33.50;30.22
61870;BME280;47810;42.264;23.826;2022-08-19T08:55:34;93659.19;;;33.52;27.72
61870;BME280;47810;42.264;23.826;2022-08-19T08:58:06;93654.53;;;33.86;31.60
61870;BME280;47810;42.264;23.826;2022-08-19T09:00:37;93650.59;;;34.11;27.01
61870;BME280;47810;42.264;23.826;2022-08-19T09:05:48;93647.50;;;34.80;27.27
61870;BME280;47810;42.264;23.826;2022-08-19T09:08:55;93652.22;;;35.07;26.55
61870;BME280;47810;42.264;23.826;2022-08-19T09:14:17;93634.72;;;34.69;25.75
61870;BME280;47810;42.264;23.826;2022-08-19T09:16:45;93646.78;;;34.68;28.20
61870;BME280;47810;42.264;23.826;2022-08-19T09:19:14;93638.16;;;34.59;29.43
61870;BME280;47810;42.264;23.826;2022-08-19T09:21:45;93638.66;;;34.56;27.47
61870;BME280;47810;42.264;23.826;2022-08-19T09:24:12;93632.69;;;34.81;25.27
61870;BME280;47810;42.264;23.826;2022-08-19T09:26:38;93633.91;;;34.90;26.98
61870;BME280;47810;42.264;23.826;2022-08-19T09:29:03;93634.94;;;35.06;25.54
61870;BME280;47810;42.264;23.826;2022-08-19T09:31:35;93632.69;;;35.25;26.15
61870;BME280;47810;42.264;23.826;2022-08-19T09:34:01;93631.91;;;35.57;24.08
61870;BME280;47810;42.264;23.826;2022-08-19T09:36:31;93629.91;;;35.74;25.74
61870;BME280;47810;42.264;23.826;2022-08-19T09:39:03;93620.03;;;35.78;23.46
61870;BME280;47810;42.264;23.826;2022-08-19T09:41:32;93626.72;;;35.87;22.80
61870;BME280;47810;42.264;23.826;2022-08-19T09:43:58;93624.09;;;35.71;22.54
61870;BME280;47810;42.264;23.826;2022-08-19T09:46:26;93621.91;;;35.45;22.81
61870;BME280;47810;42.264;23.826;2022-08-19T09:48:53;93626.34;;;35.24;24.99
61870;BME280;47810;42.264;23.826;2022-08-19T09:51:22;93624.03;;;35.65;25.38
61870;BME280;47810;42.264;23.826;2022-08-19T09:53:51;93612.91;;;36.14;23.04
61870;BME280;47810;42.264;23.826;2022-08-19T09:56:22;93602.91;;;36.41;22.90
61870;BME280;47810;42.264;23.826;2022-08-19T09:58:51;93601.34;;;36.50;23.03
61870;BME280;47810;42.264;23.826;2022-08-19T10:01:29;93602.91;;;36.41;23.85
61870;BME280;47810;42.264;23.826;2022-08-19T10:03:59;93593.53;;;36.36;23.10
61870;BME280;47810;42.264;23.826;2022-08-19T10:06:35;93604.66;;;36.52;23.71
61870;BME280;47810;42.264;23.826;2022-08-19T10:09:02;93599.19;;;36.57;22.03
61870;BME280;47810;42.264;23.826;2022-08-19T10:11:32;93583.66;;;35.39;22.75
61870;BME280;47810;42.264;23.826;2022-08-19T10:14:07;93582.78;;;35.92;24.38
61870;BME280;47810;42.264;23.826;2022-08-19T10:16:36;93588.56;;;36.33;21.67
61870;BME280;47810;42.264;23.826;2022-08-19T10:19:05;93586.53;;;36.56;22.28
61870;BME280;47810;42.264;23.826;2022-08-19T10:21:33;93586.09;;;36.79;21.19
61870;BME280;47810;42.264;23.826;2022-08-19T10:24:03;93589.94;;;36.78;23.06
61870;BME280;47810;42.264;23.826;2022-08-19T10:26:33;93590.06;;;37.04;24.71
61870;BME280;47810;42.264;23.826;2022-08-19T10:29:00;93594.47;;;37.05;23.38
61870;BME280;47810;42.264;23.826;2022-08-19T10:31:29;93577.09;;;37.04;22.56
61870;BME280;47810;42.264;23.826;2022-08-19T10:33:58;93580.22;;;37.39;26.14
61870;BME280;47810;42.264;23.826;2022-08-19T10:36:36;93578.03;;;37.41;23.74
61870;BME280;47810;42.264;23.826;2022-08-19T10:39:07;93576.97;;;37.62;22.88
61870;BME280;47810;42.264;23.826;2022-08-19T10:41:37;93578.09;;;37.87;21.92
61870;BME280;47810;42.264;23.826;2022-08-19T10:44:09;93565.41;;;37.75;20.42
61870;BME280;47810;42.264;23.826;2022-08-19T10:46:40;93577.28;;;38.02;20.75
61870;BME280;47810;42.264;23.826;2022-08-19T10:49:08;93576.44;;;37.86;19.09
61870;BME280;47810;42.264;23.826;2022-08-19T10:51:35;93573.38;;;37.46;19.28
61870;BME280;47810;42.264;23.826;2022-08-19T10:54:22;93573.47;;;36.94;21.05
61870;BME280;47810;42.264;23.826;2022-08-19T10:56:51;93571.34;;;37.06;22.75
61870;BME280;47810;42.264;23.826;2022-08-19T10:59:23;93571.19;;;37.53;19.11
61870;BME280;47810;42.264;23.826;2022-08-19T11:01:54;93573.06;;;37.43;18.46
61870;BME280;47810;42.264;23.826;2022-08-19T11:04:21;93573.88;;;37.33;20.47
61870;BME280;47810;42.264;23.826;2022-08-19T11:06:48;93563.72;;;37.44;19.66
61870;BME280;47810;42.264;23.826;2022-08-19T11:09:21;93565.91;;;37.42;20.50
61870;BME280;47810;42.264;23.826;2022-08-19T11:11:50;93556.00;;;37.46;19.09
61870;BME280;47810;42.264;23.826;2022-08-19T11:14:19;93558.97;;;37.14;21.04
61870;BME280;47810;42.264;23.826;2022-08-19T11:16:47;93559.53;;;37.21;19.86
61870;BME280;47810;42.264;23.826;2022-08-19T11:19:32;93553.22;;;37.36;19.94
61870;BME280;47810;42.264;23.826;2022-08-19T11:22:03;93560.72;;;37.56;20.57
61870;BME280;47810;42.264;23.826;2022-08-19T11:24:30;93551.28;;;37.36;20.91
61870;BME280;47810;42.264;23.826;2022-08-19T11:27:18;93556.59;;;37.53;21.78
61870;BME280;47810;42.264;23.826;2022-08-19T11:29:48;93547.22;;;37.64;21.43
61870;BME280;47810;42.264;23.826;2022-08-19T11:32:18;93541.03;;;37.01;20.21
61870;BME280;47810;42.264;23.826;2022-08-19T11:34:45;93542.19;;;37.25;20.84
61870;BME280;47810;42.264;23.826;2022-08-19T11:37:34;93543.31;;;37.24;21.26
61870;BME280;47810;42.264;23.826;2022-08-19T11:40:14;93539.50;;;37.46;21.27
61870;BME280;47810;42.264;23.826;2022-08-19T11:42:49;93533.38;;;37.08;21.22
61870;BME280;47810;42.264;23.826;2022-08-19T11:48:13;93534.75;;;37.36;20.53
61870;BME280;47810;42.264;23.826;2022-08-19T11:50:53;93523.22;;;37.34;20.70
61870;BME280;47810;42.264;23.826;2022-08-19T11:53:21;93532.81;;;37.26;21.77
61870;BME280;47810;42.264;23.826;2022-08-19T11:56:08;93527.31;;;37.16;21.27
61870;BME280;47810;42.264;23.826;2022-08-19T11:58:40;93524.75;;;36.94;20.46
61870;BME280;47810;42.264;23.826;2022-08-19T12:01:36;93525.84;;;36.93;20.91
61870;BME280;47810;42.264;23.826;2022-08-19T12:04:06;93523.63;;;36.80;26.53
61870;BME280;47810;42.264;23.826;2022-08-19T12:06:40;93517.31;;;36.90;21.17
61870;BME280;47810;42.264;23.826;2022-08-19T12:09:20;93522.34;;;37.08;20.93
61870;BME280;47810;42.264;23.826;2022-08-19T12:11:48;93520.16;;;37.20;20.26
61870;BME280;47810;42.264;23.826;2022-08-19T12:14:15;93511.34;;;37.18;21.61
61870;BME280;47810;42.264;23.826;2022-08-19T12:16:44;93517.97;;;37.22;21.05
61870;BME280;47810;42.264;23.826;2022-08-19T12:19:23;93511.91;;;37.30;22.09
61870;BME280;47810;42.264;23.826;2022-08-19T12:22:01;93510.25;;;37.24;22.98
61870;BME280;47810;42.264;23.826;2022-08-19T12:24:31;93506.41;;;37.36;23.67
61870;BME280;47810;42.264;23.826;2022-08-19T12:26:59;93507.41;;;36.94;25.26
61870;BME280;47810;42.264;23.826;2022-08-19T12:29:28;93503.06;;;37.03;21.92
61870;BME280;47810;42.264;23.826;2022-08-19T12:31:57;93503.09;;;37.23;21.06
61870;BME280;47810;42.264;23.826;2022-08-19T12:34:42;93488.19;;;37.14;20.15
61870;BME280;47810;42.264;23.826;2022-08-19T12:37:10;93491.16;;;36.87;24.65
61870;BME280;47810;42.264;23.826;2022-08-19T12:39:41;93495.59;;;36.98;21.84
61870;BME280;47810;42.264;23.826;2022-08-19T12:42:13;93485.34;;;36.78;20.71
61870;BME280;47810;42.264;23.826;2022-08-19T12:44:47;93487.59;;;36.97;20.35
61870;BME280;47810;42.264;23.826;2022-08-19T12:47:17;93484.91;;;37.12;20.17
61870;BME280;47810;42.264;23.826;2022-08-19T12:49:45;93479.84;;;36.78;21.37
61870;BME280;47810;42.264;23.826;2022-08-19T12:52:17;93477.38;;;36.67;23.82
61870;BME280;47810;42.264;23.826;2022-08-19T12:54:47;93485.31;;;36.58;22.45
61870;BME280;47810;42.264;23.826;2022-08-19T12:57:33;93486.28;;;36.31;23.03
61870;BME280;47810;42.264;23.826;2022-08-19T13:00:12;93477.22;;;36.36;22.71
61870;BME280;47810;42.264;23.826;2022-08-19T13:02:44;93484.75;;;36.51;23.50
61870;BME280;47810;42.264;23.826;2022-08-19T13:05:13;93481.38;;;36.49;26.68
61870;BME280;47810;42.264;23.826;2022-08-19T13:08:05;93479.75;;;36.48;22.00
61870;BME280;47810;42.264;23.826;2022-08-19T13:10:50;93475.38;;;36.52;22.53
61870;BME280;47810;42.264;23.826;2022-08-19T13:13:44;93478.59;;;36.44;22.60
61870;BME280;47810;42.264;23.826;2022-08-19T13:16:28;93478.59;;;36.44;22.14
61870;BME280;47810;42.264;23.826;2022-08-19T13:18:57;93472.03;;;36.45;22.02
61870;BME280;47810;42.264;23.826;2022-08-19T13:21:41;93484.03;;;36.23;23.12
61870;BME280;47810;42.264;23.826;2022-08-19T13:24:11;93485.06;;;36.07;20.95
61870;BME280;47810;42.264;23.826;2022-08-19T13:26:40;93487.00;;;35.69;22.40
61870;BME280;47810;42.264;23.826;2022-08-19T13:29:16;93488.63;;;35.65;23.42
61870;BME280;47810;42.264;23.826;2022-08-19T13:32:26;93473.94;;;35.86;23.54
61870;BME280;47810;42.264;23.826;2022-08-19T13:35:27;93471.44;;;35.85;25.30
61870;BME280;47810;42.264;23.826;2022-08-19T13:37:54;93486.97;;;35.64;25.75
61870;BME280;47810;42.264;23.826;2022-08-19T13:40:24;93475.88;;;35.54;22.14
61870;BME280;47810;42.264;23.826;2022-08-19T13:43:07;93482.22;;;35.54;25.31
61870;BME280;47810;42.264;23.826;2022-08-19T13:45:41;93478.38;;;35.55;24.26
61870;BME280;47810;42.264;23.826;2022-08-19T13:48:16;93486.88;;;35.54;26.77